Time;durP1;ratioP1;P1;durP2;ratioP2;P2;SDS_P1;SDS_P2;PMS_P1;PMS_P2;Temp;Humidity;BMP_temperature;BMP_pressure;BME280_temperature;BME280_humidity;BME280_pressure;Samples;Min_cycle;Max_cycle;Signal;HPM_P1;HPM_P2
2023/03/17 00:00:26;;;;;;;2.28;0.88;;;19.00;60.90;;;;;;5072030;28;20051;-69
2023/03/17 00:02:53;;;;;;;2.00;0.85;;;19.00;61.00;;;;;;5072072;28;20045;-70
2023/03/17 00:05:23;;;;;;;1.40;0.85;;;19.00;61.00;;;;;;5055972;28;20599;-70
2023/03/17 00:07:52;;;;;;;1.65;1.13;;;19.00;61.00;;;;;;5063719;28;20056;-71
2023/03/17 00:10:22;;;;;;;1.80;0.50;;;19.00;61.00;;;;;;5071670;28;20477;-70
2023/03/17 00:12:52;;;;;;;2.03;0.63;;;18.90;61.00;;;;;;5074454;28;20059;-70
2023/03/17 00:15:21;;;;;;;1.80;0.88;;;18.90;61.00;;;;;;5053568;28;20056;-69
2023/03/17 00:17:50;;;;;;;1.58;0.85;;;18.90;61.00;;;;;;5071037;28;20048;-71
2023/03/17 00:20:26;;;;;;;1.33;0.65;;;18.90;61.00;;;;;;5053728;28;20044;-70
2023/03/17 00:22:56;;;;;;;1.88;1.45;;;18.90;61.00;;;;;;5050673;28;20048;-70
2023/03/17 00:25:27;;;;;;;1.75;0.85;;;18.80;61.00;;;;;;5051125;28;20579;-70
2023/03/17 00:27:55;;;;;;;1.17;0.55;;;18.80;61.00;;;;;;5053094;28;20071;-70
2023/03/17 00:30:23;;;;;;;2.58;0.68;;;18.80;61.00;;;;;;5051584;28;20060;-70
2023/03/17 00:32:54;;;;;;;1.30;0.32;;;18.80;61.00;;;;;;5071100;28;20147;-70
2023/03/17 00:35:23;;;;;;;1.05;0.22;;;18.80;61.00;;;;;;5071115;28;20417;-69
2023/03/17 00:37:52;;;;;;;1.48;0.60;;;18.80;61.60;;;;;;5070397;28;20403;-69
2023/03/17 00:40:22;;;;;;;1.60;0.50;;;18.80;61.00;;;;;;5070099;28;20040;-69
2023/03/17 00:42:50;;;;;;;2.15;0.63;;;18.80;61.00;;;;;;5051549;28;20057;-69
2023/03/17 00:45:17;;;;;;;1.70;0.20;;;18.70;61.00;;;;;;5071040;28;20051;-70
2023/03/17 00:47:45;;;;;;;2.28;0.80;;;18.70;60.90;;;;;;5070856;28;20047;-70
2023/03/17 00:50:16;;;;;;;1.65;0.63;;;18.70;61.00;;;;;;5069410;28;20048;-70
2023/03/17 00:52:44;;;;;;;1.17;0.75;;;18.70;60.90;;;;;;5049645;28;20056;-69
2023/03/17 00:55:12;;;;;;;1.42;0.73;;;18.70;60.90;;;;;;5070531;28;20060;-70
2023/03/17 00:57:40;;;;;;;1.98;0.73;;;18.70;61.00;;;;;;5050762;28;20574;-70
2023/03/17 01:00:23;;;;;;;1.20;0.35;;;18.70;61.00;;;;;;5042395;28;20063;-70
2023/03/17 01:02:51;;;;;;;1.20;0.38;;;18.60;60.90;;;;;;5064118;28;20449;-70
2023/03/17 01:05:22;;;;;;;1.58;0.65;;;18.70;60.90;;;;;;5044968;28;20045;-70
2023/03/17 01:07:53;;;;;;;1.38;0.70;;;18.60;60.90;;;;;;5069691;28;20048;-69
2023/03/17 01:10:24;;;;;;;1.52;0.93;;;18.60;60.90;;;;;;5067426;28;20054;-69
2023/03/17 01:12:52;;;;;;;2.00;0.93;;;18.60;60.90;;;;;;5049926;28;20048;-70
2023/03/17 01:15:21;;;;;;;2.28;0.70;;;18.60;60.90;;;;;;5052531;28;20056;-69
2023/03/17 01:17:50;;;;;;;1.95;0.45;;;18.60;60.90;;;;;;5069810;28;20055;-70
2023/03/17 01:20:22;;;;;;;1.40;0.70;;;18.60;60.90;;;;;;5068349;28;20047;-70
2023/03/17 01:22:50;;;;;;;1.17;0.73;;;18.60;60.90;;;;;;5040439;28;20508;-70
2023/03/17 01:25:18;;;;;;;2.00;0.50;;;18.60;60.90;;;;;;5050466;28;20056;-69
2023/03/17 01:27:46;;;;;;;1.40;0.43;;;18.60;60.90;;;;;;5054135;28;20051;-69
2023/03/17 01:30:23;;;;;;;1.50;0.60;;;18.50;60.90;;;;;;5052367;28;20049;-70
2023/03/17 01:32:50;;;;;;;1.83;0.68;;;18.50;60.90;;;;;;5050136;28;20055;-71
2023/03/17 01:35:20;;;;;;;1.15;0.55;;;18.60;60.90;;;;;;5050801;28;20052;-71
2023/03/17 01:37:47;;;;;;;;;;;18.50;60.80;;;;;;5051894;28;20591;-70
2023/03/17 01:40:17;;;;;;;1.45;0.70;;;18.50;60.80;;;;;;5070118;28;20435;-70
2023/03/17 01:42:48;;;;;;;1.08;0.32;;;18.50;60.80;;;;;;5068944;28;20051;-70
2023/03/17 01:45:52;;;;;;;1.23;0.22;;;18.50;60.80;;;;;;5069740;28;20495;-70
2023/03/17 01:48:20;;;;;;;1.88;0.60;;;18.60;60.80;;;;;;5051329;28;20063;-70
2023/03/17 01:50:49;;;;;;;1.13;0.60;;;18.60;60.70;;;;;;5068983;28;20049;-69
2023/03/17 01:53:18;;;;;;;1.65;0.60;;;18.60;60.60;;;;;;5070272;28;20052;-70
2023/03/17 01:55:46;;;;;;;1.60;0.70;;;18.60;60.60;;;;;;5051608;28;20049;-71
2023/03/17 01:58:15;;;;;;;1.42;0.70;;;18.70;60.60;;;;;;5051653;28;20114;-70
2023/03/17 02:00:42;;;;;;;1.80;0.65;;;18.70;60.50;;;;;;5068766;28;20524;-71
2023/03/17 02:03:10;;;;;;;1.17;0.50;;;18.80;60.40;;;;;;5057942;28;20053;-70
2023/03/17 02:05:38;;;;;;;1.42;0.60;;;18.80;60.30;;;;;;5069810;28;20193;-70
2023/03/17 02:08:11;;;;;;;1.20;0.65;;;18.90;60.20;;;;;;5060187;28;20041;-70
2023/03/17 02:10:40;;;;;;;2.17;0.63;;;19.00;60.20;;;;;;5048014;28;20063;-70
2023/03/17 02:13:10;;;;;;;1.05;0.20;;;19.00;60.10;;;;;;5069839;28;20091;-70
2023/03/17 02:15:39;;;;;;;1.13;0.20;;;19.10;60.00;;;;;;5069677;28;20048;-69
2023/03/17 02:18:06;;;;;;;1.33;0.85;;;19.10;59.90;;;;;;5068539;28;20052;-70
2023/03/17 02:21:10;;;;;;;1.40;0.75;;;19.20;59.90;;;;;;5068897;28;20045;-70
2023/03/17 02:23:39;;;;;;;0.80;0.10;;;19.20;59.80;;;;;;5049747;28;20564;-70
2023/03/17 02:26:07;;;;;;;1.33;0.75;;;19.20;59.70;;;;;;5047832;28;20052;-70
2023/03/17 02:28:34;;;;;;;1.23;0.52;;;19.20;59.70;;;;;;5051108;28;20543;-70
2023/03/17 02:31:01;;;;;;;1.35;0.60;;;19.20;59.70;;;;;;5068587;28;20056;-70
2023/03/17 02:33:28;;;;;;;1.42;0.52;;;19.20;59.70;;;;;;5060076;28;20063;-70
2023/03/17 02:35:56;;;;;;;1.30;0.63;;;19.20;59.70;;;;;;5069434;28;20059;-70
2023/03/17 02:38:23;;;;;;;1.40;0.40;;;19.20;59.70;;;;;;5068469;28;20497;-70
2023/03/17 02:40:51;;;;;;;1.42;0.98;;;19.20;59.70;;;;;;5051236;28;20086;-71
2023/03/17 02:43:18;;;;;;;1.55;0.20;;;19.20;59.80;;;;;;5051449;28;20056;-70
2023/03/17 02:45:45;;;;;;;1.40;0.65;;;19.20;59.90;;;;;;5051631;28;20052;-71
2023/03/17 02:48:12;;;;;;;1.88;0.75;;;19.10;59.70;;;;;;5068562;28;20505;-69
2023/03/17 02:50:40;;;;;;;0.82;0.10;;;19.10;60.40;;;;;;5049632;28;20570;-70
2023/03/17 02:53:08;;;;;;;1.10;0.60;;;19.10;59.80;;;;;;5050660;28;20140;-71
2023/03/17 02:55:35;;;;;;;1.00;0.50;;;19.10;59.80;;;;;;5051301;28;20048;-70
2023/03/17 02:58:03;;;;;;;1.73;0.80;;;19.00;59.80;;;;;;5050816;28;20055;-70
2023/03/17 03:00:30;;;;;;;1.63;0.85;;;19.00;59.80;;;;;;5051586;28;20056;-70
2023/03/17 03:02:57;;;;;;;1.70;0.60;;;19.00;59.80;;;;;;5052710;28;20052;-70
2023/03/17 03:05:24;;;;;;;1.15;0.25;;;19.00;59.80;;;;;;5054996;28;20048;-70
2023/03/17 03:07:51;;;;;;;1.48;0.60;;;19.00;59.90;;;;;;5054242;28;20041;-70
2023/03/17 03:10:18;;;;;;;1.38;0.73;;;19.00;60.00;;;;;;5054582;28;20063;-71
2023/03/17 03:12:45;;;;;;;1.30;0.35;;;18.90;60.00;;;;;;5071947;28;20473;-71
2023/03/17 03:15:14;;;;;;;1.88;1.17;;;18.90;60.00;;;;;;5072650;28;20049;-71
2023/03/17 03:17:41;;;;;;;1.35;0.70;;;18.90;60.00;;;;;;5066605;28;20049;-71
2023/03/17 03:20:11;;;;;;;0.60;0.20;;;18.90;60.10;;;;;;5043894;28;20102;-71
2023/03/17 03:22:39;;;;;;;1.20;0.22;;;18.80;60.10;;;;;;5072099;28;20052;-72
2023/03/17 03:25:07;;;;;;;1.17;0.57;;;18.80;60.10;;;;;;5058471;28;20119;-71
2023/03/17 03:27:34;;;;;;;0.80;0.20;;;18.80;60.10;;;;;;5072737;28;20054;-71
2023/03/17 03:30:02;;;;;;;1.17;0.40;;;18.80;60.20;;;;;;5072163;28;20429;-71
2023/03/17 03:32:30;;;;;;;1.60;0.90;;;18.70;60.20;;;;;;5053010;28;20052;-70
2023/03/17 03:34:57;;;;;;;1.15;0.10;;;18.70;60.20;;;;;;5054209;28;20063;-70
2023/03/17 03:37:24;;;;;;;1.13;0.13;;;18.70;60.20;;;;;;5054284;28;20061;-70
2023/03/17 03:39:51;;;;;;;0.98;0.20;;;18.70;60.20;;;;;;5072699;28;20044;-70
2023/03/17 03:42:18;;;;;;;1.13;0.52;;;18.70;60.20;;;;;;5052562;28;20079;-70
2023/03/17 03:44:45;;;;;;;1.88;0.30;;;18.60;60.20;;;;;;5054354;28;20485;-69
2023/03/17 03:47:12;;;;;;;1.33;0.60;;;18.70;60.30;;;;;;5052819;28;20044;-70
2023/03/17 03:49:41;;;;;;;2.50;0.30;;;18.60;60.90;;;;;;5053243;28;20053;-71
2023/03/17 03:52:08;;;;;;;1.90;0.85;;;18.60;60.20;;;;;;5071056;28;20078;-70
2023/03/17 03:54:35;;;;;;;2.08;0.70;;;18.60;60.30;;;;;;5054230;28;20509;-70
2023/03/17 03:57:02;;;;;;;1.20;0.60;;;18.60;60.30;;;;;;5054277;28;20512;-70
2023/03/17 03:59:29;;;;;;;0.98;0.22;;;18.60;60.30;;;;;;5052380;28;20435;-70
2023/03/17 04:01:56;;;;;;;0.93;0.32;;;18.50;60.30;;;;;;5053264;28;20536;-71
2023/03/17 04:04:23;;;;;;;0.60;0.10;;;18.50;60.80;;;;;;5059889;28;20052;-71
2023/03/17 04:06:51;;;;;;;1.67;0.75;;;18.60;60.30;;;;;;5071614;28;20044;-70
2023/03/17 04:09:18;;;;;;;1.10;0.30;;;18.50;60.20;;;;;;5053288;28;20052;-71
2023/03/17 04:11:45;;;;;;;1.20;0.63;;;18.60;60.20;;;;;;5052818;28;20055;-71
2023/03/17 04:14:12;;;;;;;1.20;0.70;;;18.60;60.20;;;;;;5053372;28;20049;-70
2023/03/17 04:16:40;;;;;;;1.27;0.77;;;18.60;60.20;;;;;;5065652;28;20048;-70
2023/03/17 04:19:07;;;;;;;0.98;0.45;;;18.70;60.20;;;;;;5052033;28;20064;-70
2023/03/17 04:21:35;;;;;;;0.93;0.43;;;18.70;60.00;;;;;;5070406;28;20048;-70
2023/03/17 04:24:03;;;;;;;1.23;0.60;;;18.70;60.00;;;;;;5071183;28;20131;-70
2023/03/17 04:26:31;;;;;;;0.60;0.10;;;18.80;59.90;;;;;;5071754;28;20048;-70
2023/03/17 04:28:58;;;;;;;1.25;0.68;;;18.90;59.80;;;;;;5070581;28;20048;-70
2023/03/17 04:31:26;;;;;;;0.88;0.28;;;18.90;59.70;;;;;;5051763;28;20509;-70
2023/03/17 04:33:53;;;;;;;1.75;0.82;;;19.00;59.70;;;;;;5052524;28;20049;-70
2023/03/17 04:36:22;;;;;;;1.48;0.70;;;19.10;59.50;;;;;;5070404;28;20044;-71
2023/03/17 04:38:49;;;;;;;1.35;0.20;;;19.10;59.40;;;;;;5053031;28;20087;-70
2023/03/17 04:41:18;;;;;;;1.63;0.20;;;19.10;59.30;;;;;;5053034;28;20053;-70
2023/03/17 04:43:45;;;;;;;1.17;0.55;;;19.20;59.30;;;;;;5052508;28;20520;-70
2023/03/17 04:46:12;;;;;;;1.08;0.22;;;19.20;59.30;;;;;;5052826;28;20394;-70
2023/03/17 04:48:40;;;;;;;1.38;0.88;;;19.20;59.20;;;;;;5064682;28;20497;-71
2023/03/17 04:51:07;;;;;;;1.38;0.43;;;19.20;59.20;;;;;;5052414;28;20057;-70
2023/03/17 04:53:34;;;;;;;1.17;0.43;;;19.20;59.20;;;;;;5053063;28;20048;-70
2023/03/17 04:56:01;;;;;;;1.02;0.77;;;19.20;59.20;;;;;;5065261;28;20041;-71
2023/03/17 04:58:29;;;;;;;1.27;0.40;;;19.20;59.10;;;;;;5032804;28;20052;-70
2023/03/17 05:00:56;;;;;;;1.73;0.63;;;19.20;59.20;;;;;;5050843;28;20057;-71
2023/03/17 05:03:24;;;;;;;1.10;0.60;;;19.20;59.20;;;;;;5049629;28;20063;-71
2023/03/17 05:05:51;;;;;;;1.40;0.60;;;19.20;59.20;;;;;;5062525;28;20048;-71
2023/03/17 05:08:18;;;;;;;1.25;0.70;;;19.20;59.20;;;;;;5050784;28;20052;-71
2023/03/17 05:10:45;;;;;;;1.30;0.60;;;19.20;59.30;;;;;;5033027;28;20064;-70
2023/03/17 05:13:12;;;;;;;1.30;0.45;;;19.10;59.20;;;;;;5050718;28;20049;-71
2023/03/17 05:15:46;;;;;;;1.42;0.32;;;19.10;59.30;;;;;;5032833;28;20108;-71
2023/03/17 05:18:13;;;;;;;1.40;0.85;;;19.10;59.30;;;;;;5056725;28;20063;-70
2023/03/17 05:20:40;;;;;;;1.20;0.65;;;19.00;59.30;;;;;;5070535;28;20048;-71
2023/03/17 05:23:07;;;;;;;1.25;0.40;;;19.10;59.40;;;;;;5050886;28;20052;-70
2023/03/17 05:25:34;;;;;;;0.63;0.22;;;19.00;59.40;;;;;;5051308;28;20059;-69
2023/03/17 05:28:01;;;;;;;1.55;0.50;;;19.00;59.40;;;;;;5070349;28;20401;-70
2023/03/17 05:30:29;;;;;;;1.20;0.60;;;19.00;59.40;;;;;;5035032;28;20045;-70
2023/03/17 05:32:57;;;;;;;1.08;0.75;;;18.90;59.40;;;;;;5056355;28;20123;-70
2023/03/17 05:35:24;;;;;;;1.23;0.63;;;18.90;59.50;;;;;;5070189;28;20064;-71
2023/03/17 05:37:51;;;;;;;1.08;0.50;;;18.90;59.60;;;;;;5052425;28;20137;-70
2023/03/17 05:40:18;;;;;;;1.35;0.73;;;18.80;59.50;;;;;;5069023;28;20082;-70
2023/03/17 05:42:45;;;;;;;0.68;0.13;;;18.80;59.60;;;;;;5061788;28;20051;-70
2023/03/17 05:45:12;;;;;;;1.10;0.20;;;18.80;59.60;;;;;;5090079;28;20052;-69
2023/03/17 05:47:39;;;;;;;1.23;0.60;;;18.80;59.70;;;;;;5072520;28;20227;-71
2023/03/17 05:50:09;;;;;;;0.98;0.55;;;18.80;59.70;;;;;;5062186;28;20076;-70
2023/03/17 05:52:37;;;;;;;1.38;0.52;;;18.70;59.70;;;;;;5069973;28;20452;-70
2023/03/17 05:55:05;;;;;;;0.90;0.52;;;18.70;59.70;;;;;;5069626;28;20500;-70
2023/03/17 05:57:32;;;;;;;0.90;0.45;;;18.70;59.80;;;;;;5051124;28;20072;-70
2023/03/17 05:59:59;;;;;;;1.38;0.75;;;18.70;59.90;;;;;;5069995;28;20086;-70
2023/03/17 06:02:26;;;;;;;0.70;0.50;;;18.70;59.90;;;;;;5051782;28;20064;-70
2023/03/17 06:04:53;;;;;;;1.27;0.65;;;18.60;59.80;;;;;;5052127;28;20053;-70
2023/03/17 06:07:21;;;;;;;1.00;0.30;;;18.60;59.90;;;;;;5051620;28;20059;-70
2023/03/17 06:09:48;;;;;;;1.27;0.20;;;18.60;59.90;;;;;;5068540;28;20481;-70
2023/03/17 06:12:16;;;;;;;1.13;0.57;;;18.60;59.90;;;;;;5068578;28;20139;-71
2023/03/17 06:14:42;;;;;;;0.80;0.13;;;18.60;59.90;;;;;;5048839;28;20452;-70
2023/03/17 06:17:11;;;;;;;1.42;1.05;;;18.50;59.80;;;;;;5050212;28;20048;-70
2023/03/17 06:19:38;;;;;;;1.20;0.50;;;18.60;59.90;;;;;;5050518;28;20059;-70
2023/03/17 06:22:05;;;;;;;0.75;0.15;;;18.50;59.80;;;;;;5050419;28;20296;-70
2023/03/17 06:24:34;;;;;;;1.00;0.40;;;18.60;59.80;;;;;;5068502;28;20052;-71
2023/03/17 06:27:01;;;;;;;1.13;0.50;;;18.60;59.70;;;;;;5068680;28;20063;-70
2023/03/17 06:29:28;;;;;;;0.82;0.52;;;18.70;59.70;;;;;;5032677;28;20052;-70
2023/03/17 06:31:56;;;;;;;1.00;0.52;;;18.70;59.60;;;;;;5069511;28;20122;-69
2023/03/17 06:34:23;;;;;;;1.10;0.30;;;18.70;59.50;;;;;;5067901;28;20059;-71
2023/03/17 06:36:50;;;;;;;1.23;0.50;;;18.80;59.50;;;;;;5071305;28;20053;-70
2023/03/17 06:39:18;;;;;;;1.52;1.35;;;18.80;59.40;;;;;;5072920;28;20052;-70
2023/03/17 06:41:46;;;;;;;1.20;0.98;;;18.90;59.30;;;;;;5055425;28;20048;-70
2023/03/17 06:44:13;;;;;;;1.25;0.70;;;19.00;59.20;;;;;;5070918;28;20052;-70
2023/03/17 06:46:41;;;;;;;1.33;0.90;;;19.00;59.10;;;;;;5055226;28;20053;-70
2023/03/17 06:49:12;;;;;;;0.70;0.10;;;19.10;59.10;;;;;;5073196;28;20497;-70
2023/03/17 06:51:39;;;;;;;1.27;0.13;;;19.10;58.90;;;;;;5070992;28;20053;-70
2023/03/17 06:54:06;;;;;;;0.50;0.10;;;19.20;58.80;;;;;;5052791;28;20488;-70
2023/03/17 06:56:33;;;;;;;1.00;0.20;;;19.20;58.60;;;;;;5069417;28;20059;-71
2023/03/17 06:59:01;;;;;;;1.40;0.30;;;19.30;58.70;;;;;;5071688;28;20413;-71
2023/03/17 07:01:28;;;;;;;1.77;0.57;;;19.30;58.60;;;;;;5054331;28;20060;-71
2023/03/17 07:03:56;;;;;;;1.08;0.50;;;19.30;58.60;;;;;;5055107;28;20044;-70
2023/03/17 07:06:23;;;;;;;1.98;0.20;;;19.40;58.60;;;;;;5054210;28;20057;-71
2023/03/17 07:08:51;;;;;;;1.52;0.50;;;19.40;58.70;;;;;;5055109;28;20056;-70
2023/03/17 07:11:18;;;;;;;1.33;0.70;;;19.40;58.70;;;;;;5073048;28;20041;-70
2023/03/17 07:13:45;;;;;;;1.00;0.50;;;19.40;58.80;;;;;;5072418;28;20056;-70
2023/03/17 07:16:15;;;;;;;1.27;0.73;;;19.40;58.80;;;;;;5079299;28;20675;-70
2023/03/17 07:18:43;;;;;;;0.98;0.50;;;19.30;58.70;;;;;;5070754;28;20136;-70
2023/03/17 07:21:10;;;;;;;1.20;0.63;;;19.30;58.80;;;;;;5069923;28;20044;-71
2023/03/17 07:23:37;;;;;;;1.35;0.55;;;19.30;58.90;;;;;;5071911;28;21693;-69
2023/03/17 07:26:05;;;;;;;1.88;0.35;;;19.30;58.90;;;;;;5052221;28;20048;-70
2023/03/17 07:28:32;;;;;;;1.70;0.60;;;19.30;59.00;;;;;;5052157;28;20054;-70
2023/03/17 07:31:01;;;;;;;1.27;0.60;;;19.30;59.10;;;;;;5054184;28;20061;-70
2023/03/17 07:33:29;;;;;;;1.50;0.70;;;19.30;59.10;;;;;;5072482;28;20404;-70
2023/03/17 07:35:56;;;;;;;1.30;0.20;;;19.20;59.10;;;;;;5070462;28;20037;-70
2023/03/17 07:38:23;;;;;;;1.02;0.70;;;19.20;59.10;;;;;;5072373;28;20048;-70
2023/03/17 07:40:51;;;;;;;1.00;0.50;;;19.20;59.20;;;;;;5054202;28;20044;-70
2023/03/17 07:43:18;;;;;;;0.90;0.30;;;19.10;59.10;;;;;;5053907;28;20048;-70
2023/03/17 07:45:46;;;;;;;1.20;0.68;;;19.10;59.10;;;;;;5072188;28;20124;-71
2023/03/17 07:48:13;;;;;;;2.15;0.55;;;19.10;59.10;;;;;;5053039;28;20136;-70
2023/03/17 07:50:42;;;;;;;1.23;0.70;;;19.10;59.10;;;;;;5072339;28;20059;-71
2023/03/17 07:53:09;;;;;;;1.02;0.57;;;19.00;59.10;;;;;;5054182;28;20057;-71
2023/03/17 07:55:37;;;;;;;2.17;0.60;;;19.10;59.20;;;;;;5071925;28;20060;-70
2023/03/17 07:58:04;;;;;;;1.20;0.60;;;19.00;59.20;;;;;;5035678;28;20049;-70
2023/03/17 08:00:33;;;;;;;0.82;0.22;;;19.00;59.20;;;;;;5033828;28;20052;-70
2023/03/17 08:03:01;;;;;;;1.17;0.50;;;19.00;59.30;;;;;;5069869;28;20139;-70
2023/03/17 08:05:28;;;;;;;1.10;0.50;;;19.00;59.20;;;;;;5071736;28;20056;-70
2023/03/17 08:07:56;;;;;;;1.10;0.70;;;19.00;59.20;;;;;;5071872;28;20053;-70
2023/03/17 08:10:23;;;;;;;1.00;0.57;;;19.00;59.20;;;;;;5053559;28;20052;-70
2023/03/17 08:12:52;;;;;;;1.83;0.70;;;19.00;59.20;;;;;;5069083;28;20048;-70
2023/03/17 08:15:20;;;;;;;1.80;0.60;;;19.00;59.20;;;;;;5051372;28;20045;-70
2023/03/17 08:17:47;;;;;;;0.80;0.10;;;19.00;59.20;;;;;;5051632;28;20711;-70
2023/03/17 08:20:14;;;;;;;1.02;0.63;;;19.00;59.20;;;;;;5051388;28;20044;-70
2023/03/17 08:22:42;;;;;;;1.55;0.50;;;19.00;59.30;;;;;;5045812;28;20052;-70
2023/03/17 08:25:11;;;;;;;2.30;0.32;;;18.90;59.20;;;;;;5053256;28;20131;-70
2023/03/17 08:27:38;;;;;;;1.13;0.50;;;18.90;59.20;;;;;;5040703;28;20068;-70
2023/03/17 08:30:07;;;;;;;1.17;0.73;;;18.90;59.30;;;;;;5060913;28;20059;-72
2023/03/17 08:32:34;;;;;;;1.10;0.60;;;18.90;59.30;;;;;;5053138;28;20092;-70
2023/03/17 08:35:01;;;;;;;1.50;0.85;;;18.90;59.30;;;;;;5071278;28;20045;-69
2023/03/17 08:37:28;;;;;;;1.58;1.35;;;18.90;59.30;;;;;;5070290;28;20072;-70
2023/03/17 08:39:55;;;;;;;0.98;0.60;;;18.90;59.30;;;;;;5071272;28;20106;-70
2023/03/17 08:42:23;;;;;;;1.00;0.60;;;18.90;59.60;;;;;;5070522;28;20052;-70
2023/03/17 08:44:50;;;;;;;0.93;0.32;;;18.90;59.20;;;;;;5052904;28;20385;-70
2023/03/17 08:47:17;;;;;;;1.20;0.20;;;18.90;59.30;;;;;;5070835;28;20048;-70
2023/03/17 08:49:45;;;;;;;1.02;0.55;;;18.90;59.20;;;;;;5053118;28;20056;-70
2023/03/17 08:52:12;;;;;;;1.30;0.70;;;18.90;59.20;;;;;;5069909;28;20148;-71
2023/03/17 08:54:39;;;;;;;1.45;0.65;;;18.90;59.20;;;;;;5069625;28;20049;-71
2023/03/17 08:57:08;;;;;;;0.98;0.30;;;18.90;59.20;;;;;;5049390;28;20095;-70
2023/03/17 08:59:41;;;;;;;1.63;0.50;;;18.90;59.20;;;;;;5049553;28;20053;-70
2023/03/17 09:02:11;;;;;;;0.80;0.50;;;18.90;59.30;;;;;;5059801;28;20052;-70
2023/03/17 09:04:41;;;;;;;1.15;0.70;;;18.90;59.30;;;;;;5067761;28;20056;-70
2023/03/17 09:07:09;;;;;;;0.95;0.35;;;18.90;59.20;;;;;;5051482;28;20500;-70
2023/03/17 09:09:36;;;;;;;1.13;0.50;;;18.90;59.30;;;;;;5070484;28;20054;-70
2023/03/17 09:12:05;;;;;;;1.27;0.65;;;18.90;59.30;;;;;;5049648;28;20501;-70
2023/03/17 09:14:32;;;;;;;0.98;0.50;;;18.90;59.20;;;;;;5052647;28;20052;-70
2023/03/17 09:17:01;;;;;;;1.17;0.68;;;18.90;60.00;;;;;;5070174;28;20056;-69
2023/03/17 09:19:28;;;;;;;1.60;0.63;;;18.90;59.20;;;;;;5070004;28;20489;-70
2023/03/17 09:21:55;;;;;;;1.05;0.60;;;18.90;59.30;;;;;;5051237;28;20053;-70
2023/03/17 09:24:22;;;;;;;1.13;0.40;;;18.90;59.20;;;;;;5052162;28;20197;-70
2023/03/17 09:26:49;;;;;;;1.70;0.55;;;18.90;59.20;;;;;;5067592;28;20063;-70
2023/03/17 09:29:17;;;;;;;0.60;0.15;;;19.00;59.20;;;;;;5051994;28;20420;-70
2023/03/17 09:31:44;;;;;;;1.15;0.47;;;19.00;59.20;;;;;;5069959;28;20709;-70
2023/03/17 09:34:12;;;;;;;1.00;0.10;;;19.00;59.20;;;;;;5051828;28;20052;-70
2023/03/17 09:36:39;;;;;;;1.27;0.68;;;19.00;59.20;;;;;;5068788;28;20502;-69
2023/03/17 09:39:07;;;;;;;1.63;0.93;;;19.00;59.10;;;;;;5051174;28;20044;-70
2023/03/17 09:41:58;;;;;;;0.70;0.40;;;19.10;59.20;;;;;;5069639;28;20814;-70
2023/03/17 09:44:46;;;;;;;1.20;0.63;;;19.10;59.10;;;;;;5069936;28;20049;-70
2023/03/17 09:47:19;;;;;;;;;;;19.10;59.10;;;;;;5070074;28;20118;-70
2023/03/17 09:49:51;;;;;;;0.73;0.10;;;19.10;59.10;;;;;;5052355;28;19924;-70
2023/03/17 09:52:24;;;;;;;1.10;0.20;;;19.10;59.00;;;;;;5051643;28;20060;-71
2023/03/17 09:54:52;;;;;;;1.52;0.75;;;19.10;59.00;;;;;;5069515;28;20045;-69
2023/03/17 09:57:24;;;;;;;1.20;0.75;;;19.10;59.00;;;;;;5035535;28;20095;-70
2023/03/17 10:00:00;;;;;;;0.73;0.28;;;19.20;59.00;;;;;;5032061;28;20053;-70
2023/03/17 10:02:29;;;;;;;1.17;0.60;;;19.20;59.00;;;;;;5049647;28;20049;-70
2023/03/17 10:04:58;;;;;;;1.25;0.65;;;19.20;58.90;;;;;;5031672;28;20060;-69
2023/03/17 10:07:33;;;;;;;1.02;0.15;;;19.20;58.90;;;;;;5051849;28;20051;-70
2023/03/17 10:10:02;;;;;;;1.10;0.60;;;19.30;58.90;;;;;;5035870;28;20053;-71
2023/03/17 10:12:41;;;;;;;0.90;0.47;;;19.20;58.80;;;;;;5073877;28;20102;-69
2023/03/17 10:15:18;;;;;;;1.15;0.68;;;19.30;58.80;;;;;;5073566;28;20056;-71
2023/03/17 10:17:46;;;;;;;1.15;0.52;;;19.30;58.80;;;;;;5055928;28;20080;-71
2023/03/17 10:20:17;;;;;;;1.30;0.60;;;19.40;58.80;;;;;;5071485;28;20512;-70
2023/03/17 10:22:47;;;;;;;0.98;0.50;;;19.40;58.80;;;;;;5055736;28;20467;-70
2023/03/17 10:25:18;;;;;;;1.48;0.82;;;19.40;58.80;;;;;;5071645;28;20125;-70
2023/03/17 10:27:51;;;;;;;1.95;0.82;;;19.50;58.80;;;;;;5053322;28;20063;-71
2023/03/17 10:30:20;;;;;;;1.27;0.40;;;19.50;58.80;;;;;;5053602;28;20559;-71
2023/03/17 10:32:48;;;;;;;;;;;19.50;58.70;;;;;;5040404;28;20063;-72
2023/03/17 10:35:17;;;;;;;1.10;0.47;;;19.50;58.80;;;;;;5055325;28;19924;-71
2023/03/17 10:37:47;;;;;;;1.17;0.50;;;19.50;58.60;;;;;;5073457;28;20416;-72
2023/03/17 10:40:23;;;;;;;1.42;0.73;;;19.50;58.60;;;;;;5070679;28;20044;-72
2023/03/17 10:42:53;;;;;;;0.93;0.32;;;19.60;58.70;;;;;;5073093;28;20048;-71
2023/03/17 10:45:27;;;;;;;1.25;0.73;;;19.60;58.70;;;;;;5054954;28;20059;-72
2023/03/17 10:47:56;;;;;;;2.17;0.70;;;19.60;58.70;;;;;;5073199;28;20052;-72
2023/03/17 10:50:29;;;;;;;1.00;0.52;;;19.60;58.60;;;;;;5073330;28;20044;-71
2023/03/17 10:52:59;;;;;;;1.25;0.75;;;19.60;58.60;;;;;;5055000;28;20106;-71
2023/03/17 10:55:29;;;;;;;1.27;0.30;;;19.70;58.60;;;;;;5042991;28;20140;-71
2023/03/17 10:58:05;;;;;;;1.20;0.70;;;19.70;58.60;;;;;;5035053;28;20061;-71
2023/03/17 11:00:35;;;;;;;1.73;0.75;;;19.70;58.60;;;;;;5054049;28;20052;-72
2023/03/17 11:03:10;;;;;;;1.50;0.80;;;19.70;58.50;;;;;;5054775;28;20571;-72
2023/03/17 11:05:39;;;;;;;;;;;19.70;58.50;;;;;;5073231;28;20041;-71
2023/03/17 11:08:14;;;;;;;1.00;0.65;;;19.80;58.60;;;;;;5072833;28;19942;-69
2023/03/17 11:10:41;;;;;;;;;;;19.80;58.50;;;;;;5055131;28;20048;-68
2023/03/17 11:13:09;;;;;;;0.93;0.25;;;19.80;58.60;;;;;;5072502;28;19926;-69
2023/03/17 11:15:41;;;;;;;1.20;0.60;;;19.80;58.40;;;;;;5054069;28;20045;-68
2023/03/17 11:18:14;;;;;;;1.00;0.38;;;19.90;58.50;;;;;;5072708;28;20094;-69
2023/03/17 11:20:47;;;;;;;1.10;0.45;;;19.90;58.50;;;;;;5072276;28;20417;-68
2023/03/17 11:23:45;;;;;;;1.27;0.75;;;19.90;58.50;;;;;;5068823;28;20036;-69
2023/03/17 11:26:30;;;;;;;1.25;0.63;;;19.90;58.50;;;;;;5047656;28;20053;-69
2023/03/17 11:29:21;;;;;;;1.17;0.60;;;19.90;58.50;;;;;;5037702;28;20044;-69
2023/03/17 11:31:57;;;;;;;0.85;0.22;;;19.90;58.50;;;;;;5032770;28;20065;-72
2023/03/17 11:34:36;;;;;;;1.00;0.60;;;20.00;58.50;;;;;;5029750;28;20037;-70
2023/03/17 11:37:16;;;;;;;1.05;0.20;;;20.00;58.50;;;;;;5031835;28;20049;-70
2023/03/17 11:39:49;;;;;;;1.73;0.63;;;19.90;58.50;;;;;;5032417;28;20052;-69
2023/03/17 11:42:23;;;;;;;1.15;0.80;;;19.90;58.60;;;;;;5030690;28;20115;-70
2023/03/17 11:45:19;;;;;;;1.13;0.73;;;19.90;58.60;;;;;;5030716;28;20049;-70
2023/03/17 11:48:02;;;;;;;1.65;0.93;;;19.90;58.80;;;;;;5032408;28;20049;-70
2023/03/17 11:50:33;;;;;;;1.10;0.75;;;19.90;58.80;;;;;;5032281;28;20137;-70
2023/03/17 11:53:26;;;;;;;1.35;0.65;;;19.80;58.70;;;;;;5032195;28;20056;-67
2023/03/17 11:55:56;;;;;;;2.17;0.90;;;19.90;59.20;;;;;;5011285;28;20591;-71
2023/03/17 11:58:29;;;;;;;2.78;1.05;;;19.90;59.00;;;;;;5030988;28;20056;-70
2023/03/17 12:00:59;;;;;;;2.72;0.85;;;19.90;59.00;;;;;;5022011;28;20128;-71
2023/03/17 12:03:32;;;;;;;1.83;0.73;;;19.90;59.70;;;;;;5013092;28;20053;-68
2023/03/17 12:06:04;;;;;;;2.72;0.20;;;19.90;59.10;;;;;;5035908;28;20128;-71
2023/03/17 12:08:39;;;;;;;2.60;0.80;;;19.90;59.00;;;;;;5033233;28;20088;-71
2023/03/17 12:11:10;;;;;;;2.08;0.30;;;20.00;59.10;;;;;;5032073;28;20067;-70
2023/03/17 12:13:41;;;;;;;1.17;0.60;;;20.00;59.00;;;;;;5038364;28;20129;-70
2023/03/17 12:16:13;;;;;;;2.38;0.60;;;20.10;58.90;;;;;;5032860;28;20065;-71
2023/03/17 12:18:45;;;;;;;2.72;0.82;;;20.10;59.00;;;;;;5035622;28;20111;-70
2023/03/17 12:21:21;;;;;;;1.77;0.20;;;20.10;59.00;;;;;;5034917;28;20130;-70
2023/03/17 12:23:51;;;;;;;1.67;0.60;;;20.10;59.00;;;;;;5031717;28;20562;-70
2023/03/17 12:26:20;;;;;;;1.60;0.40;;;20.20;59.00;;;;;;5030340;28;20433;-69
2023/03/17 12:28:52;;;;;;;2.83;0.88;;;20.20;59.00;;;;;;5021227;28;20060;-70
2023/03/17 12:31:22;;;;;;;1.65;0.30;;;20.20;59.10;;;;;;5064358;28;20055;-71
2023/03/17 12:33:58;;;;;;;3.28;1.10;;;20.20;59.00;;;;;;5062466;28;20075;-71
2023/03/17 12:36:25;;;;;;;1.92;0.88;;;20.30;59.20;;;;;;5076497;28;20055;-69
2023/03/17 12:39:00;;;;;;;3.28;1.23;;;20.30;59.10;;;;;;5090553;28;20040;-70
2023/03/17 12:42:09;;;;;;;5.20;0.88;;;20.30;59.10;;;;;;5072462;28;20075;-70
2023/03/17 12:44:52;;;;;;;2.78;1.17;;;20.40;59.40;;;;;;5086842;28;20485;-70
2023/03/17 12:47:40;;;;;;;2.58;0.68;;;20.40;59.20;;;;;;5064150;28;20051;-71
2023/03/17 12:50:27;;;;;;;1.98;0.98;;;20.50;59.20;;;;;;5070496;28;20105;-70
2023/03/17 12:53:21;;;;;;;1.95;0.50;;;20.50;59.30;;;;;;5061019;28;20048;-71
2023/03/17 12:55:52;;;;;;;2.50;0.32;;;20.50;59.30;;;;;;5047641;28;20447;-70
2023/03/17 12:58:35;;;;;;;2.55;0.77;;;20.50;59.30;;;;;;5080310;28;20718;-71
2023/03/17 13:01:11;;;;;;;1.83;0.82;;;20.50;59.40;;;;;;5069222;28;20127;-70